Logo AVAMET
Benvolgut visitant, si us plau, ingressa Recuperar contrasenya
AVAMET paisatges

Inforatge Massamagrell

Dades diàries. Acumulats / Últims 30 dies disponibles

Data Temperatura (°C) Humitat rel. (%) Pressió rel. (hPa) Vent (km/h) Precipitació
Mínima Mitjana Màxima Amplitud
tèrmica
Mínima Mitjana Màxima Mínima Mitjana Màxima Predom. Mitjana Ràfega
màxima
Total
(mm)
Índex-n
Mínima Mitjana Màxima Mínima Mitjana Màxima n
0 a 1
P0 max
mm 5'
Dades mensuals acumulades fins l'últim dia disponible
02/2020 5,6 9,1 11,8 13,7 14,4 19,6 26,3 20,7 33 77 96 1.021 1.027 1.034   5,7 51,5 0,4
Dades anuals acumulades fins l'últim dia disponible
2020 1,1 7,1 14,1 11,5 9,6 17,2 26,3 25,2 33 77 98 1.015 1.026 1.035   7,0 85,3 85,0
Últims 30 dies disponibles
18-02-2020 11,8     13,2     14,4 2,6 65 82 93 1.031 1.033 1.034 SE 6,0 24,1 0,0
17-02-2020 8,9     12,7     19,7 10,8 60 88 94 1.024 1.026 1.031 NE 6,8 33,8 0,0
16-02-2020 7,9     11,7     15,1 7,2 79 89 96 1.026 1.028 1.029 W 4,5 20,9 0,0
15-02-2020 6,9     12,1     17,4 10,5 63 82 89 1.026 1.027 1.029 W 5,3 22,5 0,0
14-02-2020 9,7     14,0     21,2 11,5 43 72 89 1.025 1.026 1.027 W 5,8 22,5 0,0
13-02-2020 9,2     13,2     17,6 8,4 73 85 93 1.022 1.023 1.025 W 4,7 17,7 0,0
12-02-2020 11,1     13,7     17,4 6,3 68 82 88 1.024 1.025 1.027 NE 6,8 29,0 0,0
11-02-2020 10,2     15,6     23,4 13,2 43 69 82 1.023 1.025 1.027 WSW 6,0 22,5 0,0
10-02-2020 8,4     15,8     24,8 16,4 45 68 88 1.026 1.029 1.032 WSW 6,3 20,9 0,0
09-02-2020 6,6     11,2     16,6 10,0 67 84 91 1.028 1.030 1.033 W 3,5 17,7 0,0
08-02-2020 5,7     10,4     15,8 10,1 66 83 91 1.025 1.026 1.029 W 4,5 17,7 0,0
07-02-2020 7,7     11,1     14,9 7,2 67 82 88 1.024 1.026 1.028 W 2,3 12,9 0,0
06-02-2020 5,6     10,4     15,2 9,6 64 82 91 1.026 1.028 1.030 W 4,3 25,7 0,2
05-02-2020 8,9     12,4     17,5 8,6 37 73 88 1.028 1.030 1.032 NNE 6,6 30,6 0,2
04-02-2020 11,2     18,1     25,9 14,7 33 53 81 1.023 1.025 1.028 WSW 9,2 51,5 0,0
03-02-2020 11,3     16,4     26,3 15,0 40 69 84 1.027 1.029 1.030 WSW 5,5 19,3 0,0
02-02-2020 11,7     16,4     24,4 12,7 48 71 87 1.027 1.028 1.030 WSW 6,0 22,5 0,0
01-02-2020 11,2     17,6     25,8 14,6 41 65 81 1.021 1.023 1.027 W 7,6 33,8 0,0
31-01-2020 12,2     16,5     22,9 10,7 46 66 77 1.021 1.023 1.024 O 8,7 35,4 0,0
30-01-2020 12,3     16,1     21,3 9,0 42 63 78 1.020 1.022 1.024 WSW 10,3 40,2 0,0
29-01-2020 14,1     16,7     21,4 7,3 52 68 79 1.022 1.023 1.024 WSW 10,0 29,0 0,0
28-01-2020 13,9     15,8     17,7 3,8 61 67 75 1.021 1.022 1.023 WSW 11,9 46,7 0,0
27-01-2020 6,1     11,5     17,4 11,3 50 68 87 1.021 1.023 1.026 WSW 11,6 46,7 0,0
26-01-2020 7,3     11,7     16,5 9,2 66 83 94 1.020 1.022 1.026 W 4,2 19,3 0,0
25-01-2020 10,1     11,9     14,1 4,0 78 88 92 1.019 1.021 1.023 NE 5,0 29,0 0,0
24-01-2020 7,3     11,3     15,9 8,6 67 85 91 1.022 1.023 1.025 NNE 3,5 16,1 0,0
23-01-2020 4,9     9,9     14,0 9,1 69 84 91 1.020 1.022 1.024 W 4,2 14,5 0,0
22-01-2020 7,8     11,2     14,5 6,7 77 85 92 1.019 1.020 1.021 NNE 10,8 32,2 7,4 0,70 3,50
21-01-2020 7,2     10,1     12,7 5,5 83 95 98 1.015 1.017 1.022 NNE 20,3 75,6 36,2 0,92 7,70
20-01-2020 5,1     6,7     9,6 4,5 58 84 97 1.020 1.021 1.023 NNE 38,0 85,3 22,2 0,28 1,40
Últims 13 mesos disponibles
01/2020 1,1 5,9 14,1 10,3 9,6 15,8 22,9 21,8 63 77 95 1.017 1.026 1.033 W 7,9 85,3 84,6
12/2019 3,7 9,4 16,7 13,3 13,2 18,1 24,8 21,1 52 72 91 1.002 1.020 1.034 WSW 9,1 85,3 54,8
11/2019 4,7 11,1 20,7 15,4 15,9 20,1 28,8 24,1 42 57 82 999 1.011 1.019 WSW 10,2 57,9 1,4
10/2019 9,9 15,1 20,5 19,7 17,4 24,7 29,4 19,5 48 72 86 1.008 1.018 1.023 W 6,0 38,9 23,6
09/2019 15,5 19,6 23,2 23,4 21,4 27,1 35,3 19,8 47 74 84 1.011 1.019 1.026 S 8,1 68,5 76,8
08/2019 17,4 21,7 26,0 25,8 26,5 29,8 42,2 24,8 44 72 82 1.013 1.018 1.022 S 8,1 61,1 5,0
07/2019 19,8 21,7 24,1 26,1 27,6 30,0 37,6 17,8 53 69 81 1.006 1.015 1.023 SSE 7,8 50,0 14,0
06/2019 11,4 17,3 21,6 22,0 20,4 25,9 34,1 22,7 48 68 82 1.010 1.017 1.023 SE 8,5 59,6 0,0
05/2019 8,5 13,8 19,1 18,2 17,8 22,3 33,1 24,6 47 69 85 1.006 1.016 1.026 SSE 7,9 55,6 26,6
04/2019 7,4 10,9 14,3 15,1 15,5 19,7 30,1 22,7 46 67 95 1.000 1.014 1.026 SSO 10,3 70,9 43,2
03/2019 4,8 8,2 14,2 13,7 9,6 19,0 29,1 24,3 44 63 83 1.012 1.024 1.031 SSO 6,9 61,1 12,8
02/2019 1,4 5,6 10,8 11,1 13,2 17,5 25,2 23,8 33 67 80 995 1.026 1.035 SSO 6,9 77,8 0,0
01/2019 0,5 4,9 11,8 10,3 11,7 16,6 20,7 20,2 44 61 82 1.002 1.020 1.031 OSO 6,8 66,7 0,4
Tots els anys disponibles
2019 0,5 13,1 26,0 17,7 9,6 22,4 42,2 41,7 33 68 95 995 1.018 1.035 SSO 8,0 85,3 258,6
Temperatura (°C)
Humitat relativa (%)
Velocitat del vent i ràfega màxima (km/h)
Direcció del vent (°)
Pressió (hPa)
Precipitació (mm)
Nota sobre les dades: s'avisa a l'usuari de la provisionalitat i no oficialitat d'aquestes dades
Logo AVAMET blanc
Web allotjada a Sollutia
Llicència de Creative CommonsLa web d'AVAMET i els seus continguts estan subjectes a una llicència de
Reconeixement - No Comercial - Compartir igual
Últimes estacions:  Sorita (AVAMET), Gorga (Soci), Massalavés - Ajuntament (Soci/Inforatge), Albuixech - Polígon (Inforatge), La Torre d'en Besora (Ajuntament soci), Xixona - Sogorb Barranc Blanc (Soci), Pedreguer - Patronat (Soci) - - -